sensor_id;sensor_type;location;lat;lon;timestamp;P1;durP1;ratioP1;P2;durP2;ratioP2
79452;SDS011;68899;52.116;5.404;2023-08-20T00:02:20;3.00;;;1.35;;
79452;SDS011;68899;52.116;5.404;2023-08-20T00:04:50;3.83;;;1.33;;
79452;SDS011;68899;52.116;5.404;2023-08-20T00:07:17;2.53;;;1.42;;
79452;SDS011;68899;52.116;5.404;2023-08-20T00:09:44;2.83;;;1.73;;
79452;SDS011;68899;52.116;5.404;2023-08-20T00:12:11;3.28;;;1.30;;
79452;SDS011;68899;52.116;5.404;2023-08-20T00:14:56;3.22;;;1.45;;
79452;SDS011;68899;52.116;5.404;2023-08-20T00:17:33;2.90;;;1.40;;
79452;SDS011;68899;52.116;5.404;2023-08-20T00:20:04;2.55;;;1.95;;
79452;SDS011;68899;52.116;5.404;2023-08-20T00:22:39;2.25;;;1.17;;
79452;SDS011;68899;52.116;5.404;2023-08-20T00:25:08;2.25;;;1.35;;
79452;SDS011;68899;52.116;5.404;2023-08-20T00:27:35;3.00;;;1.20;;
79452;SDS011;68899;52.116;5.404;2023-08-20T00:30:02;2.92;;;1.67;;
79452;SDS011;68899;52.116;5.404;2023-08-20T00:32:30;4.05;;;1.42;;
79452;SDS011;68899;52.116;5.404;2023-08-20T00:34:58;2.97;;;1.35;;
79452;SDS011;68899;52.116;5.404;2023-08-20T00:37:24;2.53;;;1.23;;
79452;SDS011;68899;52.116;5.404;2023-08-20T00:39:51;2.38;;;1.65;;
79452;SDS011;68899;52.116;5.404;2023-08-20T00:42:18;3.30;;;1.02;;
79452;SDS011;68899;52.116;5.404;2023-08-20T00:44:44;2.67;;;1.20;;
79452;SDS011;68899;52.116;5.404;2023-08-20T00:47:11;2.67;;;1.45;;
79452;SDS011;68899;52.116;5.404;2023-08-20T00:49:39;2.35;;;1.58;;
79452;SDS011;68899;52.116;5.404;2023-08-20T00:52:10;2.78;;;1.45;;
79452;SDS011;68899;52.116;5.404;2023-08-20T00:54:42;2.55;;;1.33;;
79452;SDS011;68899;52.116;5.404;2023-08-20T00:57:10;2.88;;;1.25;;
79452;SDS011;68899;52.116;5.404;2023-08-20T00:59:40;3.35;;;1.33;;
79452;SDS011;68899;52.116;5.404;2023-08-20T01:02:08;3.55;;;1.70;;
79452;SDS011;68899;52.116;5.404;2023-08-20T01:04:34;1.90;;;0.93;;
79452;SDS011;68899;52.116;5.404;2023-08-20T01:07:08;3.05;;;1.23;;
79452;SDS011;68899;52.116;5.404;2023-08-20T01:12:42;2.53;;;1.45;;
79452;SDS011;68899;52.116;5.404;2023-08-20T01:15:10;2.55;;;1.35;;
79452;SDS011;68899;52.116;5.404;2023-08-20T01:17:40;2.15;;;0.95;;
79452;SDS011;68899;52.116;5.404;2023-08-20T01:20:08;3.15;;;1.33;;
79452;SDS011;68899;52.116;5.404;2023-08-20T01:30:44;2.58;;;1.20;;
79452;SDS011;68899;52.116;5.404;2023-08-20T01:33:11;2.53;;;1.15;;
79452;SDS011;68899;52.116;5.404;2023-08-20T01:35:38;2.92;;;1.27;;
79452;SDS011;68899;52.116;5.404;2023-08-20T01:38:05;2.67;;;1.30;;
79452;SDS011;68899;52.116;5.404;2023-08-20T01:40:31;2.53;;;1.02;;
79452;SDS011;68899;52.116;5.404;2023-08-20T01:42:58;3.08;;;1.25;;
79452;SDS011;68899;52.116;5.404;2023-08-20T01:45:24;2.75;;;1.23;;
79452;SDS011;68899;52.116;5.404;2023-08-20T01:47:52;3.47;;;1.40;;
79452;SDS011;68899;52.116;5.404;2023-08-20T01:50:18;1.73;;;0.93;;
79452;SDS011;68899;52.116;5.404;2023-08-20T01:52:45;2.63;;;1.27;;
79452;SDS011;68899;52.116;5.404;2023-08-20T01:55:11;2.35;;;1.13;;
79452;SDS011;68899;52.116;5.404;2023-08-20T01:57:38;3.88;;;1.42;;
79452;SDS011;68899;52.116;5.404;2023-08-20T02:00:05;2.78;;;1.23;;
79452;SDS011;68899;52.116;5.404;2023-08-20T02:02:33;3.08;;;1.15;;
79452;SDS011;68899;52.116;5.404;2023-08-20T02:05:00;2.35;;;1.15;;
79452;SDS011;68899;52.116;5.404;2023-08-20T02:07:27;2.83;;;1.33;;
79452;SDS011;68899;52.116;5.404;2023-08-20T02:09:54;1.92;;;1.15;;
79452;SDS011;68899;52.116;5.404;2023-08-20T02:12:20;3.22;;;1.27;;
79452;SDS011;68899;52.116;5.404;2023-08-20T02:14:47;2.20;;;0.98;;
79452;SDS011;68899;52.116;5.404;2023-08-20T02:17:13;2.10;;;1.35;;
79452;SDS011;68899;52.116;5.404;2023-08-20T02:19:40;2.22;;;1.25;;
79452;SDS011;68899;52.116;5.404;2023-08-20T02:22:06;2.45;;;1.13;;
79452;SDS011;68899;52.116;5.404;2023-08-20T02:24:33;1.83;;;0.93;;
79452;SDS011;68899;52.116;5.404;2023-08-20T02:26:59;2.72;;;1.00;;
79452;SDS011;68899;52.116;5.404;2023-08-20T02:29:26;3.35;;;1.20;;
79452;SDS011;68899;52.116;5.404;2023-08-20T02:31:53;2.30;;;1.20;;
79452;SDS011;68899;52.116;5.404;2023-08-20T02:34:19;2.47;;;1.05;;
79452;SDS011;68899;52.116;5.404;2023-08-20T02:36:46;2.70;;;1.60;;
79452;SDS011;68899;52.116;5.404;2023-08-20T02:39:13;3.92;;;1.15;;
79452;SDS011;68899;52.116;5.404;2023-08-20T02:41:39;2.20;;;1.13;;
79452;SDS011;68899;52.116;5.404;2023-08-20T02:44:05;1.95;;;1.15;;
79452;SDS011;68899;52.116;5.404;2023-08-20T02:46:32;1.83;;;1.02;;
79452;SDS011;68899;52.116;5.404;2023-08-20T02:48:58;3.03;;;1.50;;
79452;SDS011;68899;52.116;5.404;2023-08-20T02:51:25;2.28;;;1.38;;
79452;SDS011;68899;52.116;5.404;2023-08-20T02:53:51;2.50;;;1.25;;
79452;SDS011;68899;52.116;5.404;2023-08-20T02:56:18;2.80;;;1.20;;
79452;SDS011;68899;52.116;5.404;2023-08-20T02:58:44;2.58;;;1.33;;
79452;SDS011;68899;52.116;5.404;2023-08-20T03:01:21;3.58;;;1.25;;
79452;SDS011;68899;52.116;5.404;2023-08-20T03:03:48;1.98;;;1.33;;
79452;SDS011;68899;52.116;5.404;2023-08-20T03:06:14;2.33;;;1.33;;
79452;SDS011;68899;52.116;5.404;2023-08-20T03:08:41;1.95;;;1.13;;
79452;SDS011;68899;52.116;5.404;2023-08-20T03:11:07;2.78;;;1.27;;
79452;SDS011;68899;52.116;5.404;2023-08-20T03:13:34;2.15;;;0.98;;
79452;SDS011;68899;52.116;5.404;2023-08-20T03:16:01;2.67;;;1.38;;
79452;SDS011;68899;52.116;5.404;2023-08-20T03:18:29;2.67;;;1.40;;
79452;SDS011;68899;52.116;5.404;2023-08-20T03:20:56;3.20;;;1.45;;
79452;SDS011;68899;52.116;5.404;2023-08-20T03:23:23;2.38;;;1.25;;
79452;SDS011;68899;52.116;5.404;2023-08-20T03:25:50;2.00;;;1.15;;
79452;SDS011;68899;52.116;5.404;2023-08-20T03:28:20;1.65;;;0.73;;
79452;SDS011;68899;52.116;5.404;2023-08-20T03:30:47;2.40;;;0.95;;
79452;SDS011;68899;52.116;5.404;2023-08-20T03:33:14;2.60;;;1.13;;
79452;SDS011;68899;52.116;5.404;2023-08-20T03:35:41;2.67;;;0.85;;
79452;SDS011;68899;52.116;5.404;2023-08-20T03:38:08;1.85;;;1.17;;
79452;SDS011;68899;52.116;5.404;2023-08-20T03:40:34;2.03;;;0.82;;
79452;SDS011;68899;52.116;5.404;2023-08-20T03:43:01;2.20;;;1.15;;
79452;SDS011;68899;52.116;5.404;2023-08-20T03:45:28;2.15;;;1.15;;
79452;SDS011;68899;52.116;5.404;2023-08-20T03:47:56;1.88;;;1.52;;
79452;SDS011;68899;52.116;5.404;2023-08-20T03:50:22;3.00;;;1.02;;
79452;SDS011;68899;52.116;5.404;2023-08-20T03:52:49;2.17;;;1.20;;
79452;SDS011;68899;52.116;5.404;2023-08-20T03:55:15;2.25;;;0.95;;
79452;SDS011;68899;52.116;5.404;2023-08-20T03:57:42;1.77;;;1.25;;
79452;SDS011;68899;52.116;5.404;2023-08-20T04:00:09;2.55;;;0.95;;
79452;SDS011;68899;52.116;5.404;2023-08-20T04:02:36;2.00;;;1.10;;
79452;SDS011;68899;52.116;5.404;2023-08-20T04:05:02;2.25;;;1.42;;
79452;SDS011;68899;52.116;5.404;2023-08-20T04:07:29;1.42;;;0.82;;
79452;SDS011;68899;52.116;5.404;2023-08-20T04:09:56;2.85;;;1.20;;
79452;SDS011;68899;52.116;5.404;2023-08-20T04:12:23;2.08;;;1.02;;
79452;SDS011;68899;52.116;5.404;2023-08-20T04:14:49;2.17;;;0.93;;
79452;SDS011;68899;52.116;5.404;2023-08-20T04:17:16;2.13;;;0.95;;
79452;SDS011;68899;52.116;5.404;2023-08-20T04:19:42;2.22;;;0.80;;
79452;SDS011;68899;52.116;5.404;2023-08-20T04:22:08;2.97;;;0.90;;
79452;SDS011;68899;52.116;5.404;2023-08-20T04:24:35;2.80;;;1.48;;
79452;SDS011;68899;52.116;5.404;2023-08-20T04:27:01;1.83;;;1.08;;
79452;SDS011;68899;52.116;5.404;2023-08-20T04:29:28;2.38;;;1.27;;
79452;SDS011;68899;52.116;5.404;2023-08-20T04:31:54;2.80;;;1.35;;
79452;SDS011;68899;52.116;5.404;2023-08-20T04:34:21;2.70;;;1.05;;
79452;SDS011;68899;52.116;5.404;2023-08-20T04:36:47;1.70;;;0.73;;
79452;SDS011;68899;52.116;5.404;2023-08-20T04:39:14;3.85;;;1.13;;
79452;SDS011;68899;52.116;5.404;2023-08-20T04:41:40;4.05;;;1.20;;
79452;SDS011;68899;52.116;5.404;2023-08-20T04:44:07;2.05;;;0.95;;
79452;SDS011;68899;52.116;5.404;2023-08-20T04:46:33;2.58;;;1.00;;
79452;SDS011;68899;52.116;5.404;2023-08-20T04:49:00;2.22;;;1.00;;
79452;SDS011;68899;52.116;5.404;2023-08-20T04:51:27;2.45;;;1.15;;
79452;SDS011;68899;52.116;5.404;2023-08-20T04:53:53;2.20;;;0.85;;
79452;SDS011;68899;52.116;5.404;2023-08-20T04:56:20;2.05;;;1.15;;
79452;SDS011;68899;52.116;5.404;2023-08-20T04:58:46;3.35;;;1.27;;
79452;SDS011;68899;52.116;5.404;2023-08-20T05:01:13;2.45;;;0.98;;
79452;SDS011;68899;52.116;5.404;2023-08-20T05:03:39;2.15;;;0.85;;
79452;SDS011;68899;52.116;5.404;2023-08-20T05:06:06;2.33;;;1.05;;
79452;SDS011;68899;52.116;5.404;2023-08-20T05:08:32;2.72;;;1.13;;
79452;SDS011;68899;52.116;5.404;2023-08-20T05:10:59;1.92;;;1.08;;
79452;SDS011;68899;52.116;5.404;2023-08-20T05:13:27;2.58;;;0.90;;
79452;SDS011;68899;52.116;5.404;2023-08-20T05:15:53;2.60;;;1.25;;
79452;SDS011;68899;52.116;5.404;2023-08-20T05:18:20;2.08;;;0.98;;
79452;SDS011;68899;52.116;5.404;2023-08-20T05:20:46;2.15;;;1.13;;
79452;SDS011;68899;52.116;5.404;2023-08-20T05:23:13;2.70;;;1.10;;
79452;SDS011;68899;52.116;5.404;2023-08-20T05:25:39;2.15;;;1.23;;
79452;SDS011;68899;52.116;5.404;2023-08-20T05:28:06;2.30;;;1.17;;
79452;SDS011;68899;52.116;5.404;2023-08-20T05:30:33;3.15;;;1.30;;
79452;SDS011;68899;52.116;5.404;2023-08-20T05:33:00;2.88;;;1.60;;
79452;SDS011;68899;52.116;5.404;2023-08-20T05:35:27;2.88;;;1.05;;
79452;SDS011;68899;52.116;5.404;2023-08-20T05:37:54;2.83;;;1.45;;
79452;SDS011;68899;52.116;5.404;2023-08-20T05:40:21;1.65;;;0.93;;
79452;SDS011;68899;52.116;5.404;2023-08-20T05:42:47;3.45;;;1.23;;
79452;SDS011;68899;52.116;5.404;2023-08-20T05:45:17;2.40;;;0.95;;
79452;SDS011;68899;52.116;5.404;2023-08-20T05:47:43;3.50;;;1.13;;
79452;SDS011;68899;52.116;5.404;2023-08-20T05:50:10;2.30;;;1.20;;
79452;SDS011;68899;52.116;5.404;2023-08-20T05:52:36;1.83;;;0.95;;
79452;SDS011;68899;52.116;5.404;2023-08-20T05:55:03;2.67;;;1.55;;
79452;SDS011;68899;52.116;5.404;2023-08-20T05:57:30;1.70;;;0.82;;
79452;SDS011;68899;52.116;5.404;2023-08-20T05:59:57;1.80;;;0.80;;
79452;SDS011;68899;52.116;5.404;2023-08-20T06:02:23;2.72;;;1.00;;
79452;SDS011;68899;52.116;5.404;2023-08-20T06:04:50;2.72;;;1.02;;
79452;SDS011;68899;52.116;5.404;2023-08-20T06:07:17;1.73;;;1.05;;
79452;SDS011;68899;52.116;5.404;2023-08-20T06:09:43;2.40;;;0.95;;
79452;SDS011;68899;52.116;5.404;2023-08-20T06:12:10;2.00;;;1.13;;
79452;SDS011;68899;52.116;5.404;2023-08-20T06:14:36;2.33;;;1.05;;
79452;SDS011;68899;52.116;5.404;2023-08-20T06:17:03;1.70;;;0.93;;
79452;SDS011;68899;52.116;5.404;2023-08-20T06:19:29;2.30;;;1.27;;
79452;SDS011;68899;52.116;5.404;2023-08-20T06:21:56;2.25;;;1.02;;
79452;SDS011;68899;52.116;5.404;2023-08-20T06:24:23;2.90;;;0.95;;
79452;SDS011;68899;52.116;5.404;2023-08-20T06:26:50;2.22;;;1.02;;
79452;SDS011;68899;52.116;5.404;2023-08-20T06:29:17;3.35;;;1.08;;
79452;SDS011;68899;52.116;5.404;2023-08-20T06:31:44;2.97;;;1.02;;
79452;SDS011;68899;52.116;5.404;2023-08-20T06:34:10;3.60;;;1.33;;
79452;SDS011;68899;52.116;5.404;2023-08-20T06:36:37;3.40;;;1.05;;
79452;SDS011;68899;52.116;5.404;2023-08-20T06:39:03;3.25;;;1.20;;
79452;SDS011;68899;52.116;5.404;2023-08-20T06:41:30;2.95;;;1.42;;
79452;SDS011;68899;52.116;5.404;2023-08-20T06:43:57;2.85;;;1.50;;
79452;SDS011;68899;52.116;5.404;2023-08-20T06:46:23;4.20;;;1.60;;
79452;SDS011;68899;52.116;5.404;2023-08-20T06:48:50;2.92;;;1.17;;
79452;SDS011;68899;52.116;5.404;2023-08-20T06:51:19;2.78;;;1.13;;
79452;SDS011;68899;52.116;5.404;2023-08-20T06:53:46;4.47;;;1.13;;
79452;SDS011;68899;52.116;5.404;2023-08-20T06:56:13;2.72;;;0.95;;
79452;SDS011;68899;52.116;5.404;2023-08-20T06:58:40;4.90;;;1.52;;
79452;SDS011;68899;52.116;5.404;2023-08-20T07:01:07;2.58;;;1.25;;
79452;SDS011;68899;52.116;5.404;2023-08-20T07:03:36;4.18;;;1.30;;
79452;SDS011;68899;52.116;5.404;2023-08-20T07:06:04;86.05;;;23.25;;
79452;SDS011;68899;52.116;5.404;2023-08-20T07:08:32;71.35;;;16.80;;
79452;SDS011;68899;52.116;5.404;2023-08-20T07:11:02;68.85;;;15.00;;
79452;SDS011;68899;52.116;5.404;2023-08-20T07:13:28;51.92;;;14.23;;
79452;SDS011;68899;52.116;5.404;2023-08-20T07:15:55;27.55;;;7.55;;
79452;SDS011;68899;52.116;5.404;2023-08-20T07:18:22;24.52;;;5.22;;
79452;SDS011;68899;52.116;5.404;2023-08-20T07:20:49;19.65;;;5.18;;
79452;SDS011;68899;52.116;5.404;2023-08-20T07:23:17;24.80;;;5.80;;
79452;SDS011;68899;52.116;5.404;2023-08-20T07:25:44;30.67;;;7.53;;
79452;SDS011;68899;52.116;5.404;2023-08-20T07:28:11;33.42;;;8.27;;
79452;SDS011;68899;52.116;5.404;2023-08-20T07:30:37;18.48;;;4.90;;
79452;SDS011;68899;52.116;5.404;2023-08-20T07:33:05;13.25;;;4.07;;
79452;SDS011;68899;52.116;5.404;2023-08-20T07:35:33;13.88;;;2.55;;
79452;SDS011;68899;52.116;5.404;2023-08-20T07:37:59;15.25;;;3.30;;
79452;SDS011;68899;52.116;5.404;2023-08-20T07:40:26;11.30;;;2.85;;
79452;SDS011;68899;52.116;5.404;2023-08-20T07:42:52;11.80;;;3.15;;
79452;SDS011;68899;52.116;5.404;2023-08-20T07:45:19;8.00;;;2.70;;
79452;SDS011;68899;52.116;5.404;2023-08-20T07:47:45;14.18;;;2.22;;
79452;SDS011;68899;52.116;5.404;2023-08-20T07:50:12;7.03;;;2.03;;
79452;SDS011;68899;52.116;5.404;2023-08-20T07:52:38;5.45;;;1.35;;
79452;SDS011;68899;52.116;5.404;2023-08-20T07:55:06;6.63;;;1.67;;
79452;SDS011;68899;52.116;5.404;2023-08-20T07:57:33;4.68;;;1.13;;
79452;SDS011;68899;52.116;5.404;2023-08-20T08:00:00;6.95;;;1.77;;
79452;SDS011;68899;52.116;5.404;2023-08-20T08:02:27;7.32;;;1.33;;
79452;SDS011;68899;52.116;5.404;2023-08-20T08:04:53;6.60;;;1.20;;
79452;SDS011;68899;52.116;5.404;2023-08-20T08:07:19;3.42;;;0.88;;
79452;SDS011;68899;52.116;5.404;2023-08-20T08:09:46;6.40;;;1.60;;
79452;SDS011;68899;52.116;5.404;2023-08-20T08:12:12;5.72;;;1.50;;
79452;SDS011;68899;52.116;5.404;2023-08-20T08:14:39;5.13;;;1.92;;
79452;SDS011;68899;52.116;5.404;2023-08-20T08:17:05;5.75;;;1.33;;
79452;SDS011;68899;52.116;5.404;2023-08-20T08:19:33;4.60;;;1.30;;
79452;SDS011;68899;52.116;5.404;2023-08-20T08:22:00;5.38;;;1.63;;
79452;SDS011;68899;52.116;5.404;2023-08-20T08:24:27;6.45;;;1.40;;
79452;SDS011;68899;52.116;5.404;2023-08-20T08:26:53;4.43;;;0.98;;
79452;SDS011;68899;52.116;5.404;2023-08-20T08:29:20;7.53;;;1.20;;
79452;SDS011;68899;52.116;5.404;2023-08-20T08:31:46;4.20;;;1.45;;
79452;SDS011;68899;52.116;5.404;2023-08-20T08:34:12;6.03;;;1.27;;
79452;SDS011;68899;52.116;5.404;2023-08-20T08:36:40;5.93;;;1.25;;
79452;SDS011;68899;52.116;5.404;2023-08-20T08:39:07;5.90;;;1.13;;
79452;SDS011;68899;52.116;5.404;2023-08-20T08:41:33;5.53;;;1.92;;
79452;SDS011;68899;52.116;5.404;2023-08-20T08:44:04;7.07;;;2.20;;
79452;SDS011;68899;52.116;5.404;2023-08-20T08:46:35;9.40;;;2.55;;
79452;SDS011;68899;52.116;5.404;2023-08-20T08:49:02;6.20;;;1.90;;
79452;SDS011;68899;52.116;5.404;2023-08-20T08:51:30;4.90;;;1.35;;
79452;SDS011;68899;52.116;5.404;2023-08-20T08:53:58;5.75;;;1.35;;
79452;SDS011;68899;52.116;5.404;2023-08-20T08:56:25;7.88;;;1.25;;
79452;SDS011;68899;52.116;5.404;2023-08-20T08:58:51;3.72;;;1.25;;
79452;SDS011;68899;52.116;5.404;2023-08-20T09:01:18;3.30;;;1.17;;
79452;SDS011;68899;52.116;5.404;2023-08-20T09:03:44;4.00;;;1.55;;
79452;SDS011;68899;52.116;5.404;2023-08-20T09:06:12;3.97;;;1.55;;
79452;SDS011;68899;52.116;5.404;2023-08-20T09:08:38;3.45;;;1.48;;
79452;SDS011;68899;52.116;5.404;2023-08-20T09:11:05;3.42;;;1.00;;
79452;SDS011;68899;52.116;5.404;2023-08-20T09:13:38;5.35;;;1.33;;
79452;SDS011;68899;52.116;5.404;2023-08-20T09:16:06;4.97;;;1.50;;
79452;SDS011;68899;52.116;5.404;2023-08-20T09:18:44;5.80;;;1.30;;
79452;SDS011;68899;52.116;5.404;2023-08-20T09:21:12;4.18;;;1.23;;
79452;SDS011;68899;52.116;5.404;2023-08-20T09:23:39;4.80;;;1.33;;
79452;SDS011;68899;52.116;5.404;2023-08-20T09:26:06;3.92;;;1.02;;
79452;SDS011;68899;52.116;5.404;2023-08-20T09:28:43;5.88;;;1.00;;
79452;SDS011;68899;52.116;5.404;2023-08-20T09:31:13;4.18;;;1.48;;
79452;SDS011;68899;52.116;5.404;2023-08-20T09:33:51;3.78;;;1.10;;
79452;SDS011;68899;52.116;5.404;2023-08-20T09:36:19;4.63;;;1.25;;
79452;SDS011;68899;52.116;5.404;2023-08-20T09:38:56;3.60;;;1.02;;
79452;SDS011;68899;52.116;5.404;2023-08-20T09:41:25;4.32;;;0.98;;
79452;SDS011;68899;52.116;5.404;2023-08-20T09:43:54;3.47;;;1.10;;
79452;SDS011;68899;52.116;5.404;2023-08-20T09:46:27;3.90;;;0.63;;
79452;SDS011;68899;52.116;5.404;2023-08-20T09:48:58;4.75;;;1.13;;
79452;SDS011;68899;52.116;5.404;2023-08-20T09:51:25;4.78;;;2.03;;
79452;SDS011;68899;52.116;5.404;2023-08-20T09:53:59;4.68;;;0.85;;
79452;SDS011;68899;52.116;5.404;2023-08-20T09:56:38;3.28;;;1.20;;
79452;SDS011;68899;52.116;5.404;2023-08-20T09:59:05;3.42;;;1.35;;
79452;SDS011;68899;52.116;5.404;2023-08-20T10:01:32;4.30;;;1.40;;
79452;SDS011;68899;52.116;5.404;2023-08-20T10:03:59;3.17;;;0.85;;
79452;SDS011;68899;52.116;5.404;2023-08-20T10:06:26;3.17;;;0.82;;
79452;SDS011;68899;52.116;5.404;2023-08-20T10:08:55;3.38;;;0.75;;
79452;SDS011;68899;52.116;5.404;2023-08-20T10:11:24;3.10;;;0.82;;
79452;SDS011;68899;52.116;5.404;2023-08-20T10:13:50;2.00;;;0.82;;
79452;SDS011;68899;52.116;5.404;2023-08-20T10:16:17;3.80;;;1.02;;
79452;SDS011;68899;52.116;5.404;2023-08-20T10:18:47;4.72;;;0.93;;
79452;SDS011;68899;52.116;5.404;2023-08-20T10:21:14;1.77;;;0.80;;
79452;SDS011;68899;52.116;5.404;2023-08-20T10:23:40;3.40;;;0.52;;
79452;SDS011;68899;52.116;5.404;2023-08-20T10:26:10;3.78;;;1.40;;
79452;SDS011;68899;52.116;5.404;2023-08-20T10:28:37;2.30;;;0.80;;
79452;SDS011;68899;52.116;5.404;2023-08-20T10:33:36;2.20;;;0.63;;
79452;SDS011;68899;52.116;5.404;2023-08-20T10:36:17;2.13;;;0.55;;
79452;SDS011;68899;52.116;5.404;2023-08-20T10:38:49;3.05;;;0.88;;
79452;SDS011;68899;52.116;5.404;2023-08-20T10:41:16;1.75;;;0.93;;
79452;SDS011;68899;52.116;5.404;2023-08-20T10:43:50;3.83;;;0.85;;
79452;SDS011;68899;52.116;5.404;2023-08-20T10:48:55;2.72;;;0.90;;
79452;SDS011;68899;52.116;5.404;2023-08-20T10:59:17;3.17;;;0.63;;
79452;SDS011;68899;52.116;5.404;2023-08-20T11:01:48;4.10;;;0.47;;
79452;SDS011;68899;52.116;5.404;2023-08-20T11:04:19;2.47;;;0.65;;
79452;SDS011;68899;52.116;5.404;2023-08-20T11:06:52;3.38;;;1.08;;
79452;SDS011;68899;52.116;5.404;2023-08-20T11:09:24;3.15;;;0.38;;
79452;SDS011;68899;52.116;5.404;2023-08-20T11:11:52;2.47;;;0.75;;
79452;SDS011;68899;52.116;5.404;2023-08-20T11:14:19;3.88;;;0.85;;
79452;SDS011;68899;52.116;5.404;2023-08-20T11:16:47;2.88;;;0.68;;
79452;SDS011;68899;52.116;5.404;2023-08-20T11:21:48;2.80;;;0.85;;
79452;SDS011;68899;52.116;5.404;2023-08-20T11:24:15;2.17;;;0.45;;
79452;SDS011;68899;52.116;5.404;2023-08-20T11:26:43;3.33;;;0.80;;
79452;SDS011;68899;52.116;5.404;2023-08-20T11:29:11;3.05;;;0.63;;
79452;SDS011;68899;52.116;5.404;2023-08-20T11:31:39;3.88;;;0.68;;
79452;SDS011;68899;52.116;5.404;2023-08-20T11:34:06;4.15;;;1.13;;
79452;SDS011;68899;52.116;5.404;2023-08-20T11:36:34;4.18;;;0.93;;
79452;SDS011;68899;52.116;5.404;2023-08-20T11:39:01;3.50;;;0.90;;
79452;SDS011;68899;52.116;5.404;2023-08-20T11:41:29;2.22;;;1.02;;
79452;SDS011;68899;52.116;5.404;2023-08-20T11:43:55;3.05;;;1.23;;
79452;SDS011;68899;52.116;5.404;2023-08-20T11:46:23;2.95;;;0.95;;
79452;SDS011;68899;52.116;5.404;2023-08-20T11:49:01;4.43;;;0.80;;
79452;SDS011;68899;52.116;5.404;2023-08-20T11:51:41;2.30;;;0.82;;
79452;SDS011;68899;52.116;5.404;2023-08-20T11:54:10;2.58;;;0.52;;
79452;SDS011;68899;52.116;5.404;2023-08-20T11:56:45;3.45;;;0.73;;
79452;SDS011;68899;52.116;5.404;2023-08-20T11:59:13;3.58;;;0.88;;
79452;SDS011;68899;52.116;5.404;2023-08-20T12:01:41;1.70;;;0.50;;
79452;SDS011;68899;52.116;5.404;2023-08-20T12:04:17;3.40;;;1.08;;
79452;SDS011;68899;52.116;5.404;2023-08-20T12:06:44;4.05;;;0.98;;
79452;SDS011;68899;52.116;5.404;2023-08-20T12:09:23;3.20;;;0.70;;
79452;SDS011;68899;52.116;5.404;2023-08-20T12:11:51;2.72;;;0.95;;
79452;SDS011;68899;52.116;5.404;2023-08-20T12:14:18;2.55;;;1.00;;
79452;SDS011;68899;52.116;5.404;2023-08-20T12:16:45;3.20;;;0.63;;
79452;SDS011;68899;52.116;5.404;2023-08-20T12:19:12;2.67;;;0.63;;
79452;SDS011;68899;52.116;5.404;2023-08-20T12:21:40;3.30;;;0.73;;
79452;SDS011;68899;52.116;5.404;2023-08-20T12:24:08;2.30;;;0.77;;
79452;SDS011;68899;52.116;5.404;2023-08-20T12:26:38;4.15;;;1.25;;
79452;SDS011;68899;52.116;5.404;2023-08-20T12:29:05;2.70;;;0.75;;
79452;SDS011;68899;52.116;5.404;2023-08-20T12:31:32;2.70;;;0.63;;
79452;SDS011;68899;52.116;5.404;2023-08-20T12:33:59;3.20;;;0.80;;
79452;SDS011;68899;52.116;5.404;2023-08-20T12:36:27;2.67;;;0.82;;
79452;SDS011;68899;52.116;5.404;2023-08-20T12:38:54;2.55;;;1.17;;
79452;SDS011;68899;52.116;5.404;2023-08-20T12:41:21;1.63;;;0.73;;
79452;SDS011;68899;52.116;5.404;2023-08-20T12:43:48;2.72;;;1.15;;
79452;SDS011;68899;52.116;5.404;2023-08-20T12:46:14;2.83;;;1.02;;
79452;SDS011;68899;52.116;5.404;2023-08-20T12:48:42;2.83;;;0.80;;
79452;SDS011;68899;52.116;5.404;2023-08-20T12:51:08;2.50;;;1.02;;
79452;SDS011;68899;52.116;5.404;2023-08-20T12:53:38;4.32;;;0.93;;
79452;SDS011;68899;52.116;5.404;2023-08-20T12:56:05;3.35;;;1.00;;
79452;SDS011;68899;52.116;5.404;2023-08-20T12:58:32;2.88;;;0.63;;
79452;SDS011;68899;52.116;5.404;2023-08-20T13:00:59;2.83;;;0.75;;
79452;SDS011;68899;52.116;5.404;2023-08-20T13:03:25;6.57;;;1.05;;
79452;SDS011;68899;52.116;5.404;2023-08-20T13:05:54;2.42;;;0.95;;
79452;SDS011;68899;52.116;5.404;2023-08-20T13:08:23;4.40;;;0.68;;
79452;SDS011;68899;52.116;5.404;2023-08-20T13:10:52;3.75;;;0.93;;
79452;SDS011;68899;52.116;5.404;2023-08-20T13:13:22;2.75;;;1.08;;
79452;SDS011;68899;52.116;5.404;2023-08-20T13:15:50;2.38;;;0.55;;
79452;SDS011;68899;52.116;5.404;2023-08-20T13:18:18;2.70;;;1.02;;
79452;SDS011;68899;52.116;5.404;2023-08-20T13:20:45;3.05;;;0.63;;
79452;SDS011;68899;52.116;5.404;2023-08-20T13:23:12;2.90;;;0.63;;
79452;SDS011;68899;52.116;5.404;2023-08-20T13:25:39;2.95;;;1.10;;
79452;SDS011;68899;52.116;5.404;2023-08-20T13:28:05;2.55;;;0.63;;
79452;SDS011;68899;52.116;5.404;2023-08-20T13:30:32;5.22;;;1.15;;
79452;SDS011;68899;52.116;5.404;2023-08-20T13:32:59;3.38;;;0.77;;
79452;SDS011;68899;52.116;5.404;2023-08-20T13:35:28;3.13;;;1.05;;
79452;SDS011;68899;52.116;5.404;2023-08-20T13:37:54;2.97;;;0.43;;
79452;SDS011;68899;52.116;5.404;2023-08-20T13:40:21;3.58;;;1.08;;
79452;SDS011;68899;52.116;5.404;2023-08-20T13:42:47;4.03;;;0.73;;
79452;SDS011;68899;52.116;5.404;2023-08-20T13:45:14;3.67;;;0.98;;
79452;SDS011;68899;52.116;5.404;2023-08-20T13:47:40;2.65;;;0.77;;
79452;SDS011;68899;52.116;5.404;2023-08-20T13:50:07;3.03;;;0.82;;
79452;SDS011;68899;52.116;5.404;2023-08-20T13:52:34;2.53;;;0.98;;
79452;SDS011;68899;52.116;5.404;2023-08-20T13:55:01;2.80;;;0.70;;
79452;SDS011;68899;52.116;5.404;2023-08-20T13:57:29;3.80;;;0.93;;
79452;SDS011;68899;52.116;5.404;2023-08-20T13:59:55;3.80;;;1.10;;
79452;SDS011;68899;52.116;5.404;2023-08-20T14:02:21;2.30;;;0.75;;
79452;SDS011;68899;52.116;5.404;2023-08-20T14:04:48;2.75;;;1.35;;
79452;SDS011;68899;52.116;5.404;2023-08-20T14:07:15;2.45;;;0.75;;
79452;SDS011;68899;52.116;5.404;2023-08-20T14:09:41;1.88;;;0.63;;
79452;SDS011;68899;52.116;5.404;2023-08-20T14:12:08;3.30;;;1.38;;
79452;SDS011;68899;52.116;5.404;2023-08-20T14:14:34;2.42;;;0.75;;
79452;SDS011;68899;52.116;5.404;2023-08-20T14:17:01;2.65;;;1.00;;
79452;SDS011;68899;52.116;5.404;2023-08-20T14:19:29;3.03;;;0.60;;
79452;SDS011;68899;52.116;5.404;2023-08-20T14:21:55;1.88;;;0.70;;
79452;SDS011;68899;52.116;5.404;2023-08-20T14:24:22;4.60;;;0.77;;
79452;SDS011;68899;52.116;5.404;2023-08-20T14:26:48;4.80;;;1.35;;
79452;SDS011;68899;52.116;5.404;2023-08-20T14:29:15;2.92;;;0.80;;
79452;SDS011;68899;52.116;5.404;2023-08-20T14:31:41;4.47;;;0.73;;
79452;SDS011;68899;52.116;5.404;2023-08-20T14:34:08;2.47;;;0.57;;
79452;SDS011;68899;52.116;5.404;2023-08-20T14:36:35;2.88;;;1.05;;
79452;SDS011;68899;52.116;5.404;2023-08-20T14:39:01;2.85;;;0.95;;
79452;SDS011;68899;52.116;5.404;2023-08-20T14:41:31;2.92;;;0.95;;
79452;SDS011;68899;52.116;5.404;2023-08-20T14:43:59;2.33;;;0.77;;
79452;SDS011;68899;52.116;5.404;2023-08-20T14:46:25;3.35;;;0.93;;
79452;SDS011;68899;52.116;5.404;2023-08-20T14:48:52;2.17;;;0.65;;
79452;SDS011;68899;52.116;5.404;2023-08-20T14:51:21;2.78;;;0.73;;
79452;SDS011;68899;52.116;5.404;2023-08-20T14:53:48;3.55;;;0.80;;
79452;SDS011;68899;52.116;5.404;2023-08-20T14:56:15;2.65;;;0.52;;
79452;SDS011;68899;52.116;5.404;2023-08-20T14:58:41;2.00;;;1.15;;
79452;SDS011;68899;52.116;5.404;2023-08-20T15:01:08;3.83;;;0.68;;
79452;SDS011;68899;52.116;5.404;2023-08-20T15:03:34;2.47;;;0.60;;
79452;SDS011;68899;52.116;5.404;2023-08-20T15:06:01;3.15;;;0.88;;
79452;SDS011;68899;52.116;5.404;2023-08-20T15:08:28;5.13;;;0.63;;
79452;SDS011;68899;52.116;5.404;2023-08-20T15:10:55;4.63;;;0.85;;
79452;SDS011;68899;52.116;5.404;2023-08-20T15:13:26;3.25;;;1.02;;
79452;SDS011;68899;52.116;5.404;2023-08-20T15:15:53;3.28;;;0.75;;
79452;SDS011;68899;52.116;5.404;2023-08-20T15:18:22;2.60;;;0.98;;